Terminal Aerodrome Forecast
Issued by NWS Pendleton, OR

Home | Current Version | Previous Version | Text Only | Print | Product List | Glossary On
Versions: 1 2 3 4 5 6 7 8 9 10 11 12 13 14
115
FTUS46 KPDT 201720
TAFPDT
TAF
KPDT 201720Z 2018/2118 26020G33KT P6SM BKN070
     FM210300 25016G24KT P6SM SCT070 BKN100
     FM210800 20011KT P6SM SCT100 BKN200
     FM211600 15007KT P6SM -RA BKN050=

USA.gov is the U.S. government's official web portal to all federal, state and local government web resources and services.